Harrisburg, NE (69345)

7:30 PM MDT on April 20, 2015 (GMT -0600)
Old Stage Hill Road | | Change Station
CLOSE
Current Station
Personal Weather Station
Location: Gering, NE
Elevation: 4360 ft
Nearby Weather Stations

Elev 4360 ft 41.72 °N, 103.67 °W | Updated 8 seconds ago

Clear
Clear
49.6 °F
Feels Like 50 °F
N
0.0
Wind Variable Wind from WNW
Gusts 2.0 mph

Today
High -- | Low -- °F
--% Chance of Precip.
Yesterday
High -- | Low -- °F
Precip. -- in
6:07 AM 7:40 PM
Waxing Crescent, 7% visible
Pressure 29.86 in
Visibility 10.0 miles
Clouds Few 9000 ft
Windchill 50 °F
Dew Point 28 °F
Humidity 43%
Rainfall 0.00 in
Snow Depth Not available.
UV 0 out of 12
Pollen 9.50 out of 12
Air Quality Not available.
Flu Activity Local Activity
METAR KBFF 210053Z AUTO 34009KT 10SM FEW090 11/M04 A2985 RMK AO2 SLP109 T01111039

More Conditions Fewer Conditions

Pressure 29.86 in
Visibility 10.0 miles
Clouds Few 9000 ft
Windchill 50 °F
Dew Point 28 °F
Humidity 43%
Rainfall 0.00 in
Snow Depth Not available.
UV 0 out of 12
Pollen 9.50 out of 12
Air Quality Not available.
Flu Activity Local Activity
METAR KBFF 210053Z AUTO 34009KT 10SM FEW090 11/M04 A2985 RMK AO2 SLP109 T01111039

More Conditions Fewer Conditions

10-Day Weather Forecast

Almanac

Astronomy

Apr. 20, 2015 Rise Set
Actual Time
Civil Twilight
Nautical Twilight
Astronomical Twilight
Moon
Length of Visible Light
Length of Day
Tomorrow will be .
, % of the Moon is Illuminated

Today's Extremes

State Highs State Lows

Community

WunderPhotos

Upload Photos

1,815,276 photos uploaded!

WunderBlogs® & News

Nearby

Air Quality

  Air Quality AQ Index Pollutant
Not available.

Snow Depth

Station Depth Elevation

Earthquake Activity

City Distance Mag. Time & Date
Minimum magnitude displayed is 2.5.

Coastal Water Temperatures

Place Temperature

Stations

Nearby Weather Stations

Station Location Temp. Windchill Dew Point Humidity Wind Precip. Elev Updated Type